sensor_id;sensor_type;location;lat;lon;timestamp;temperature;humidity
42841;DHT22;28491;46.898;7.660;2022-07-29T00:01:49;18.00;70.80
42841;DHT22;28491;46.898;7.660;2022-07-29T00:04:17;18.00;70.70
42841;DHT22;28491;46.898;7.660;2022-07-29T00:06:43;18.00;70.90
42841;DHT22;28491;46.898;7.660;2022-07-29T00:09:08;18.00;70.50
42841;DHT22;28491;46.898;7.660;2022-07-29T00:11:34;18.00;70.50
42841;DHT22;28491;46.898;7.660;2022-07-29T00:13:59;18.10;70.60
42841;DHT22;28491;46.898;7.660;2022-07-29T00:16:25;18.00;70.60
42841;DHT22;28491;46.898;7.660;2022-07-29T00:18:50;18.00;70.70
42841;DHT22;28491;46.898;7.660;2022-07-29T00:21:16;18.00;70.40
42841;DHT22;28491;46.898;7.660;2022-07-29T00:23:42;18.10;70.30
42841;DHT22;28491;46.898;7.660;2022-07-29T00:26:07;17.90;70.30
42841;DHT22;28491;46.898;7.660;2022-07-29T00:28:33;17.90;70.90
42841;DHT22;28491;46.898;7.660;2022-07-29T00:30:58;17.80;71.00
42841;DHT22;28491;46.898;7.660;2022-07-29T00:33:24;17.60;71.30
42841;DHT22;28491;46.898;7.660;2022-07-29T00:35:50;17.60;71.50
42841;DHT22;28491;46.898;7.660;2022-07-29T00:38:17;17.60;71.40
42841;DHT22;28491;46.898;7.660;2022-07-29T00:40:43;17.60;71.60
42841;DHT22;28491;46.898;7.660;2022-07-29T00:43:09;17.50;71.40
42841;DHT22;28491;46.898;7.660;2022-07-29T00:45:35;17.50;71.40
42841;DHT22;28491;46.898;7.660;2022-07-29T00:48:02;17.40;71.60
42841;DHT22;28491;46.898;7.660;2022-07-29T00:50:28;17.40;71.80
42841;DHT22;28491;46.898;7.660;2022-07-29T00:52:54;17.40;71.60
42841;DHT22;28491;46.898;7.660;2022-07-29T00:55:20;17.40;71.60
42841;DHT22;28491;46.898;7.660;2022-07-29T00:57:46;17.40;71.50
42841;DHT22;28491;46.898;7.660;2022-07-29T01:00:15;17.30;71.50
42841;DHT22;28491;46.898;7.660;2022-07-29T01:02:40;17.40;71.60
42841;DHT22;28491;46.898;7.660;2022-07-29T01:05:06;17.30;71.70
42841;DHT22;28491;46.898;7.660;2022-07-29T01:07:34;17.20;71.70
42841;DHT22;28491;46.898;7.660;2022-07-29T01:10:04;17.20;71.70
42841;DHT22;28491;46.898;7.660;2022-07-29T01:12:32;17.30;71.80
42841;DHT22;28491;46.898;7.660;2022-07-29T01:15:00;17.30;71.70
42841;DHT22;28491;46.898;7.660;2022-07-29T01:17:32;17.20;71.60
42841;DHT22;28491;46.898;7.660;2022-07-29T01:25:49;17.20;71.30
42841;DHT22;28491;46.898;7.660;2022-07-29T01:28:49;17.00;71.00
42841;DHT22;28491;46.898;7.660;2022-07-29T01:31:22;16.90;71.30
42841;DHT22;28491;46.898;7.660;2022-07-29T01:33:57;16.80;71.50
42841;DHT22;28491;46.898;7.660;2022-07-29T01:36:28;16.90;71.70
42841;DHT22;28491;46.898;7.660;2022-07-29T01:44:31;16.90;70.80
42841;DHT22;28491;46.898;7.660;2022-07-29T01:47:02;16.90;70.60
42841;DHT22;28491;46.898;7.660;2022-07-29T01:49:35;16.90;70.70
42841;DHT22;28491;46.898;7.660;2022-07-29T01:52:07;17.00;70.50
42841;DHT22;28491;46.898;7.660;2022-07-29T01:54:40;16.90;70.70
42841;DHT22;28491;46.898;7.660;2022-07-29T01:57:09;16.90;70.90
42841;DHT22;28491;46.898;7.660;2022-07-29T01:59:37;16.90;70.70
42841;DHT22;28491;46.898;7.660;2022-07-29T02:02:04;16.90;70.80
42841;DHT22;28491;46.898;7.660;2022-07-29T02:04:34;16.80;70.90
42841;DHT22;28491;46.898;7.660;2022-07-29T02:07:06;16.80;70.90
42841;DHT22;28491;46.898;7.660;2022-07-29T02:09:34;16.70;71.00
42841;DHT22;28491;46.898;7.660;2022-07-29T02:12:02;16.80;71.00
42841;DHT22;28491;46.898;7.660;2022-07-29T02:14:32;16.70;71.30
42841;DHT22;28491;46.898;7.660;2022-07-29T02:17:00;16.70;71.00
42841;DHT22;28491;46.898;7.660;2022-07-29T02:19:27;16.70;70.90
42841;DHT22;28491;46.898;7.660;2022-07-29T02:21:55;16.80;70.70
42841;DHT22;28491;46.898;7.660;2022-07-29T02:24:23;16.80;70.90
42841;DHT22;28491;46.898;7.660;2022-07-29T02:26:51;16.80;70.60
42841;DHT22;28491;46.898;7.660;2022-07-29T02:29:20;16.90;70.40
42841;DHT22;28491;46.898;7.660;2022-07-29T02:31:49;16.90;70.60
42841;DHT22;28491;46.898;7.660;2022-07-29T02:34:15;16.90;70.50
42841;DHT22;28491;46.898;7.660;2022-07-29T02:36:43;17.00;70.40
42841;DHT22;28491;46.898;7.660;2022-07-29T02:39:09;17.10;70.10
42841;DHT22;28491;46.898;7.660;2022-07-29T02:41:44;17.10;70.00
42841;DHT22;28491;46.898;7.660;2022-07-29T02:44:13;17.10;70.10
42841;DHT22;28491;46.898;7.660;2022-07-29T02:46:45;17.00;70.20
42841;DHT22;28491;46.898;7.660;2022-07-29T02:49:26;17.00;70.40
42841;DHT22;28491;46.898;7.660;2022-07-29T02:51:57;17.00;70.60
42841;DHT22;28491;46.898;7.660;2022-07-29T02:54:31;16.90;70.80
42841;DHT22;28491;46.898;7.660;2022-07-29T02:57:01;16.90;70.60
42841;DHT22;28491;46.898;7.660;2022-07-29T02:59:27;16.80;70.70
42841;DHT22;28491;46.898;7.660;2022-07-29T03:01:55;16.80;70.80
42841;DHT22;28491;46.898;7.660;2022-07-29T03:04:24;16.80;71.00
42841;DHT22;28491;46.898;7.660;2022-07-29T03:06:52;16.90;71.20
42841;DHT22;28491;46.898;7.660;2022-07-29T03:09:18;16.90;70.60
42841;DHT22;28491;46.898;7.660;2022-07-29T03:11:45;16.80;70.80
42841;DHT22;28491;46.898;7.660;2022-07-29T03:14:11;16.80;70.70
42841;DHT22;28491;46.898;7.660;2022-07-29T03:16:37;16.90;70.60
42841;DHT22;28491;46.898;7.660;2022-07-29T03:19:04;16.80;70.30
42841;DHT22;28491;46.898;7.660;2022-07-29T03:21:30;16.70;70.20
42841;DHT22;28491;46.898;7.660;2022-07-29T03:23:56;16.70;70.30
42841;DHT22;28491;46.898;7.660;2022-07-29T03:26:22;16.80;70.20
42841;DHT22;28491;46.898;7.660;2022-07-29T03:28:47;16.70;70.20
42841;DHT22;28491;46.898;7.660;2022-07-29T03:31:13;16.70;70.40
42841;DHT22;28491;46.898;7.660;2022-07-29T03:33:38;16.60;70.40
42841;DHT22;28491;46.898;7.660;2022-07-29T03:36:04;16.50;70.80
42841;DHT22;28491;46.898;7.660;2022-07-29T03:38:33;16.50;70.90
42841;DHT22;28491;46.898;7.660;2022-07-29T03:41:03;16.50;70.80
42841;DHT22;28491;46.898;7.660;2022-07-29T03:43:32;16.40;71.10
42841;DHT22;28491;46.898;7.660;2022-07-29T03:46:00;16.40;70.90
42841;DHT22;28491;46.898;7.660;2022-07-29T03:48:28;16.50;70.20
42841;DHT22;28491;46.898;7.660;2022-07-29T03:50:56;16.50;70.20
42841;DHT22;28491;46.898;7.660;2022-07-29T03:53:22;16.60;70.20
42841;DHT22;28491;46.898;7.660;2022-07-29T03:55:52;16.60;70.20
42841;DHT22;28491;46.898;7.660;2022-07-29T03:58:19;16.60;70.20
42841;DHT22;28491;46.898;7.660;2022-07-29T04:00:46;16.70;70.30
42841;DHT22;28491;46.898;7.660;2022-07-29T04:03:12;16.70;70.30
42841;DHT22;28491;46.898;7.660;2022-07-29T04:05:38;16.70;70.30
42841;DHT22;28491;46.898;7.660;2022-07-29T04:08:04;16.80;70.50
42841;DHT22;28491;46.898;7.660;2022-07-29T04:10:30;16.70;70.20
42841;DHT22;28491;46.898;7.660;2022-07-29T04:12:56;16.70;70.10
42841;DHT22;28491;46.898;7.660;2022-07-29T04:15:21;16.80;70.30
42841;DHT22;28491;46.898;7.660;2022-07-29T04:17:47;16.80;70.30
42841;DHT22;28491;46.898;7.660;2022-07-29T04:20:12;16.70;70.60
42841;DHT22;28491;46.898;7.660;2022-07-29T04:22:39;16.70;70.40
42841;DHT22;28491;46.898;7.660;2022-07-29T04:25:05;16.60;70.20
42841;DHT22;28491;46.898;7.660;2022-07-29T04:27:31;16.60;70.40
42841;DHT22;28491;46.898;7.660;2022-07-29T04:29:57;16.60;70.30
42841;DHT22;28491;46.898;7.660;2022-07-29T04:32:22;16.70;70.20
42841;DHT22;28491;46.898;7.660;2022-07-29T04:34:48;16.70;70.30
42841;DHT22;28491;46.898;7.660;2022-07-29T04:37:14;16.70;70.30
42841;DHT22;28491;46.898;7.660;2022-07-29T04:39:39;16.70;70.10
42841;DHT22;28491;46.898;7.660;2022-07-29T04:42:06;16.70;70.10
42841;DHT22;28491;46.898;7.660;2022-07-29T04:44:31;16.60;70.30
42841;DHT22;28491;46.898;7.660;2022-07-29T04:46:57;16.50;70.80
42841;DHT22;28491;46.898;7.660;2022-07-29T04:49:23;16.40;71.10
42841;DHT22;28491;46.898;7.660;2022-07-29T04:51:48;16.60;71.00
42841;DHT22;28491;46.898;7.660;2022-07-29T04:54:14;16.60;70.80
42841;DHT22;28491;46.898;7.660;2022-07-29T04:56:40;16.70;70.60
42841;DHT22;28491;46.898;7.660;2022-07-29T04:59:07;16.70;70.80
42841;DHT22;28491;46.898;7.660;2022-07-29T05:01:32;16.80;69.90
42841;DHT22;28491;46.898;7.660;2022-07-29T05:03:58;16.80;70.00
42841;DHT22;28491;46.898;7.660;2022-07-29T05:06:23;16.80;70.30
42841;DHT22;28491;46.898;7.660;2022-07-29T05:08:49;16.80;70.60
42841;DHT22;28491;46.898;7.660;2022-07-29T05:11:15;16.80;70.40
42841;DHT22;28491;46.898;7.660;2022-07-29T05:13:40;17.00;70.60
42841;DHT22;28491;46.898;7.660;2022-07-29T05:16:07;17.10;70.60
42841;DHT22;28491;46.898;7.660;2022-07-29T05:18:33;17.20;70.50
42841;DHT22;28491;46.898;7.660;2022-07-29T05:20:58;17.20;71.50
42841;DHT22;28491;46.898;7.660;2022-07-29T05:23:24;17.00;72.30
42841;DHT22;28491;46.898;7.660;2022-07-29T05:25:49;17.00;74.30
42841;DHT22;28491;46.898;7.660;2022-07-29T05:28:15;17.10;75.50
42841;DHT22;28491;46.898;7.660;2022-07-29T05:30:40;17.10;73.90
42841;DHT22;28491;46.898;7.660;2022-07-29T05:33:06;17.10;72.40
42841;DHT22;28491;46.898;7.660;2022-07-29T05:35:32;17.00;74.40
42841;DHT22;28491;46.898;7.660;2022-07-29T05:37:57;16.80;76.30
42841;DHT22;28491;46.898;7.660;2022-07-29T05:40:23;16.80;78.50
42841;DHT22;28491;46.898;7.660;2022-07-29T05:42:48;16.80;77.00
42841;DHT22;28491;46.898;7.660;2022-07-29T05:45:14;16.70;77.50
42841;DHT22;28491;46.898;7.660;2022-07-29T05:47:39;16.60;77.50
42841;DHT22;28491;46.898;7.660;2022-07-29T05:50:05;16.50;79.10
42841;DHT22;28491;46.898;7.660;2022-07-29T05:52:31;16.50;79.60
42841;DHT22;28491;46.898;7.660;2022-07-29T05:54:57;16.50;80.40
42841;DHT22;28491;46.898;7.660;2022-07-29T05:57:23;16.50;79.60
42841;DHT22;28491;46.898;7.660;2022-07-29T05:59:50;16.60;79.10
42841;DHT22;28491;46.898;7.660;2022-07-29T06:02:16;16.50;79.10
42841;DHT22;28491;46.898;7.660;2022-07-29T06:04:43;16.60;80.30
42841;DHT22;28491;46.898;7.660;2022-07-29T06:07:09;16.60;78.90
42841;DHT22;28491;46.898;7.660;2022-07-29T06:09:34;16.60;79.30
42841;DHT22;28491;46.898;7.660;2022-07-29T06:12:00;16.70;78.70
42841;DHT22;28491;46.898;7.660;2022-07-29T06:14:26;16.70;78.40
42841;DHT22;28491;46.898;7.660;2022-07-29T06:16:52;16.80;77.50
42841;DHT22;28491;46.898;7.660;2022-07-29T06:19:18;16.90;76.10
42841;DHT22;28491;46.898;7.660;2022-07-29T06:21:45;16.90;76.30
42841;DHT22;28491;46.898;7.660;2022-07-29T06:24:11;17.10;77.00
42841;DHT22;28491;46.898;7.660;2022-07-29T06:26:38;17.20;77.30
42841;DHT22;28491;46.898;7.660;2022-07-29T06:29:03;17.70;78.30
42841;DHT22;28491;46.898;7.660;2022-07-29T06:31:29;19.20;73.80
42841;DHT22;28491;46.898;7.660;2022-07-29T06:33:54;20.90;70.40
42841;DHT22;28491;46.898;7.660;2022-07-29T06:36:20;21.10;67.00
42841;DHT22;28491;46.898;7.660;2022-07-29T06:38:46;20.30;67.30
42841;DHT22;28491;46.898;7.660;2022-07-29T06:41:11;19.80;69.00
42841;DHT22;28491;46.898;7.660;2022-07-29T06:43:42;19.20;70.60
42841;DHT22;28491;46.898;7.660;2022-07-29T06:46:12;18.90;70.80
42841;DHT22;28491;46.898;7.660;2022-07-29T06:48:39;18.80;72.30
42841;DHT22;28491;46.898;7.660;2022-07-29T06:51:06;18.80;73.00
42841;DHT22;28491;46.898;7.660;2022-07-29T06:53:32;18.80;73.40
42841;DHT22;28491;46.898;7.660;2022-07-29T06:55:59;18.80;72.50
42841;DHT22;28491;46.898;7.660;2022-07-29T06:58:25;18.70;72.70
42841;DHT22;28491;46.898;7.660;2022-07-29T07:00:51;18.80;71.90
42841;DHT22;28491;46.898;7.660;2022-07-29T07:03:17;18.80;72.10
42841;DHT22;28491;46.898;7.660;2022-07-29T07:05:43;18.90;72.90
42841;DHT22;28491;46.898;7.660;2022-07-29T07:08:10;19.20;71.40
42841;DHT22;28491;46.898;7.660;2022-07-29T07:10:35;19.40;72.20
42841;DHT22;28491;46.898;7.660;2022-07-29T07:13:03;20.00;72.20
42841;DHT22;28491;46.898;7.660;2022-07-29T07:15:29;20.40;69.90
42841;DHT22;28491;46.898;7.660;2022-07-29T07:18:00;20.30;70.10
42841;DHT22;28491;46.898;7.660;2022-07-29T07:20:26;20.20;69.60
42841;DHT22;28491;46.898;7.660;2022-07-29T07:22:52;20.10;69.50
42841;DHT22;28491;46.898;7.660;2022-07-29T07:25:17;19.80;69.40
42841;DHT22;28491;46.898;7.660;2022-07-29T07:27:44;19.70;70.10
42841;DHT22;28491;46.898;7.660;2022-07-29T07:30:28;19.60;70.40
42841;DHT22;28491;46.898;7.660;2022-07-29T07:32:54;19.70;70.50
42841;DHT22;28491;46.898;7.660;2022-07-29T07:35:20;20.00;72.00
42841;DHT22;28491;46.898;7.660;2022-07-29T07:37:46;20.40;70.50
42841;DHT22;28491;46.898;7.660;2022-07-29T07:40:12;21.30;68.60
42841;DHT22;28491;46.898;7.660;2022-07-29T07:42:40;23.40;65.40
42841;DHT22;28491;46.898;7.660;2022-07-29T07:45:06;23.70;62.30
42841;DHT22;28491;46.898;7.660;2022-07-29T07:47:35;22.90;63.30
42841;DHT22;28491;46.898;7.660;2022-07-29T07:50:00;22.40;63.90
42841;DHT22;28491;46.898;7.660;2022-07-29T07:52:26;22.10;65.00
42841;DHT22;28491;46.898;7.660;2022-07-29T07:54:51;21.80;64.60
42841;DHT22;28491;46.898;7.660;2022-07-29T07:57:18;21.60;65.80
42841;DHT22;28491;46.898;7.660;2022-07-29T07:59:44;21.50;66.20
42841;DHT22;28491;46.898;7.660;2022-07-29T08:02:09;21.50;64.80
42841;DHT22;28491;46.898;7.660;2022-07-29T08:04:35;21.40;65.40
42841;DHT22;28491;46.898;7.660;2022-07-29T08:07:01;21.50;65.80
42841;DHT22;28491;46.898;7.660;2022-07-29T08:09:28;21.30;65.90
42841;DHT22;28491;46.898;7.660;2022-07-29T08:11:54;21.40;65.30
42841;DHT22;28491;46.898;7.660;2022-07-29T08:14:20;21.70;66.20
42841;DHT22;28491;46.898;7.660;2022-07-29T08:16:45;22.40;65.40
42841;DHT22;28491;46.898;7.660;2022-07-29T08:19:11;22.60;63.80
42841;DHT22;28491;46.898;7.660;2022-07-29T08:21:37;23.20;63.60
42841;DHT22;28491;46.898;7.660;2022-07-29T08:24:03;23.00;62.70
42841;DHT22;28491;46.898;7.660;2022-07-29T08:26:48;22.80;62.20
42841;DHT22;28491;46.898;7.660;2022-07-29T08:29:13;22.20;62.80
42841;DHT22;28491;46.898;7.660;2022-07-29T08:31:39;21.80;63.60
42841;DHT22;28491;46.898;7.660;2022-07-29T08:34:05;21.80;65.00
42841;DHT22;28491;46.898;7.660;2022-07-29T08:36:32;21.60;64.80
42841;DHT22;28491;46.898;7.660;2022-07-29T08:38:59;21.70;65.70
42841;DHT22;28491;46.898;7.660;2022-07-29T08:41:25;21.80;65.50
42841;DHT22;28491;46.898;7.660;2022-07-29T08:43:52;22.10;66.80
42841;DHT22;28491;46.898;7.660;2022-07-29T08:46:19;22.30;64.50
42841;DHT22;28491;46.898;7.660;2022-07-29T08:48:45;22.60;63.40
42841;DHT22;28491;46.898;7.660;2022-07-29T08:51:16;22.90;62.70
42841;DHT22;28491;46.898;7.660;2022-07-29T08:53:43;23.10;61.30
42841;DHT22;28491;46.898;7.660;2022-07-29T08:56:16;23.30;60.90
42841;DHT22;28491;46.898;7.660;2022-07-29T08:58:44;23.40;60.80
42841;DHT22;28491;46.898;7.660;2022-07-29T09:01:11;23.20;61.40
42841;DHT22;28491;46.898;7.660;2022-07-29T09:03:37;23.30;62.10
42841;DHT22;28491;46.898;7.660;2022-07-29T09:06:05;23.20;61.80
42841;DHT22;28491;46.898;7.660;2022-07-29T09:08:32;23.30;57.70
42841;DHT22;28491;46.898;7.660;2022-07-29T09:10:58;23.30;53.40
42841;DHT22;28491;46.898;7.660;2022-07-29T09:13:25;23.60;56.60
42841;DHT22;28491;46.898;7.660;2022-07-29T09:15:51;24.10;51.10
42841;DHT22;28491;46.898;7.660;2022-07-29T09:21:06;24.10;44.00
42841;DHT22;28491;46.898;7.660;2022-07-29T09:24:08;23.90;47.50
42841;DHT22;28491;46.898;7.660;2022-07-29T09:26:36;23.70;49.30
42841;DHT22;28491;46.898;7.660;2022-07-29T09:29:23;23.50;50.60
42841;DHT22;28491;46.898;7.660;2022-07-29T09:31:51;23.30;54.30
42841;DHT22;28491;46.898;7.660;2022-07-29T09:34:25;23.30;62.00
42841;DHT22;28491;46.898;7.660;2022-07-29T09:36:52;23.00;64.90
42841;DHT22;28491;46.898;7.660;2022-07-29T09:41:54;22.60;68.30
42841;DHT22;28491;46.898;7.660;2022-07-29T09:44:21;22.40;67.90
42841;DHT22;28491;46.898;7.660;2022-07-29T09:49:23;21.50;73.80
42841;DHT22;28491;46.898;7.660;2022-07-29T09:52:03;21.30;74.10
42841;DHT22;28491;46.898;7.660;2022-07-29T09:54:29;21.30;72.80
42841;DHT22;28491;46.898;7.660;2022-07-29T09:56:59;21.10;72.90
42841;DHT22;28491;46.898;7.660;2022-07-29T09:59:25;21.00;73.10
42841;DHT22;28491;46.898;7.660;2022-07-29T10:01:52;21.10;73.90
42841;DHT22;28491;46.898;7.660;2022-07-29T10:04:18;20.90;69.80
42841;DHT22;28491;46.898;7.660;2022-07-29T10:07:01;20.90;71.50
42841;DHT22;28491;46.898;7.660;2022-07-29T10:09:27;21.00;72.80
42841;DHT22;28491;46.898;7.660;2022-07-29T10:12:05;21.20;72.80
42841;DHT22;28491;46.898;7.660;2022-07-29T10:14:32;21.30;71.90
42841;DHT22;28491;46.898;7.660;2022-07-29T10:16:59;21.30;70.40
42841;DHT22;28491;46.898;7.660;2022-07-29T10:19:28;21.30;68.80
42841;DHT22;28491;46.898;7.660;2022-07-29T10:21:54;21.30;67.90
42841;DHT22;28491;46.898;7.660;2022-07-29T10:24:19;21.50;69.00
42841;DHT22;28491;46.898;7.660;2022-07-29T10:26:46;21.60;68.30
42841;DHT22;28491;46.898;7.660;2022-07-29T10:29:13;21.60;66.90
42841;DHT22;28491;46.898;7.660;2022-07-29T10:31:49;21.70;67.10
42841;DHT22;28491;46.898;7.660;2022-07-29T10:36:59;21.90;67.40
42841;DHT22;28491;46.898;7.660;2022-07-29T10:39:46;22.00;66.70
42841;DHT22;28491;46.898;7.660;2022-07-29T10:42:19;22.30;67.80
42841;DHT22;28491;46.898;7.660;2022-07-29T10:44:46;22.20;65.10
42841;DHT22;28491;46.898;7.660;2022-07-29T10:47:25;22.30;66.70
42841;DHT22;28491;46.898;7.660;2022-07-29T10:50:04;22.40;68.40
42841;DHT22;28491;46.898;7.660;2022-07-29T10:55:36;22.50;67.30
42841;DHT22;28491;46.898;7.660;2022-07-29T10:58:12;22.40;66.70
42841;DHT22;28491;46.898;7.660;2022-07-29T11:00:39;22.40;67.50
42841;DHT22;28491;46.898;7.660;2022-07-29T11:03:04;22.50;66.90
42841;DHT22;28491;46.898;7.660;2022-07-29T11:05:30;22.40;66.40
42841;DHT22;28491;46.898;7.660;2022-07-29T11:08:20;22.40;66.00
42841;DHT22;28491;46.898;7.660;2022-07-29T11:10:49;22.60;65.30
42841;DHT22;28491;46.898;7.660;2022-07-29T11:16:08;22.60;63.40
42841;DHT22;28491;46.898;7.660;2022-07-29T11:18:33;22.60;65.50
42841;DHT22;28491;46.898;7.660;2022-07-29T11:20:59;22.60;66.30
42841;DHT22;28491;46.898;7.660;2022-07-29T11:23:30;22.70;65.20
42841;DHT22;28491;46.898;7.660;2022-07-29T11:31:33;22.40;64.30
42841;DHT22;28491;46.898;7.660;2022-07-29T11:34:28;22.30;64.60
42841;DHT22;28491;46.898;7.660;2022-07-29T11:44:54;21.90;65.70
42841;DHT22;28491;46.898;7.660;2022-07-29T11:47:21;21.90;66.00
42841;DHT22;28491;46.898;7.660;2022-07-29T11:49:48;21.70;69.20
42841;DHT22;28491;46.898;7.660;2022-07-29T11:52:14;21.50;70.40
42841;DHT22;28491;46.898;7.660;2022-07-29T11:54:42;21.40;64.90
42841;DHT22;28491;46.898;7.660;2022-07-29T11:57:08;21.40;70.00
42841;DHT22;28491;46.898;7.660;2022-07-29T11:59:41;21.50;69.40
42841;DHT22;28491;46.898;7.660;2022-07-29T12:02:07;21.60;68.30
42841;DHT22;28491;46.898;7.660;2022-07-29T12:04:33;21.60;70.80
42841;DHT22;28491;46.898;7.660;2022-07-29T12:06:59;21.60;71.50
42841;DHT22;28491;46.898;7.660;2022-07-29T12:09:25;21.50;70.50
42841;DHT22;28491;46.898;7.660;2022-07-29T12:11:56;21.60;71.50
42841;DHT22;28491;46.898;7.660;2022-07-29T12:14:30;21.80;67.80
42841;DHT22;28491;46.898;7.660;2022-07-29T12:16:57;21.90;67.10
42841;DHT22;28491;46.898;7.660;2022-07-29T12:19:22;22.10;65.90
42841;DHT22;28491;46.898;7.660;2022-07-29T12:24:14;22.20;67.70
42841;DHT22;28491;46.898;7.660;2022-07-29T12:27:08;22.30;65.90
42841;DHT22;28491;46.898;7.660;2022-07-29T12:29:34;22.30;64.70
42841;DHT22;28491;46.898;7.660;2022-07-29T12:31:59;22.30;64.80
42841;DHT22;28491;46.898;7.660;2022-07-29T12:34:27;22.40;64.40
42841;DHT22;28491;46.898;7.660;2022-07-29T12:36:53;22.40;63.10
42841;DHT22;28491;46.898;7.660;2022-07-29T12:39:20;22.30;64.30
42841;DHT22;28491;46.898;7.660;2022-07-29T12:41:46;22.30;64.10
42841;DHT22;28491;46.898;7.660;2022-07-29T12:44:12;22.20;63.00
42841;DHT22;28491;46.898;7.660;2022-07-29T12:46:37;22.20;63.80
42841;DHT22;28491;46.898;7.660;2022-07-29T12:49:03;22.10;64.30
42841;DHT22;28491;46.898;7.660;2022-07-29T12:51:33;22.20;66.50
42841;DHT22;28491;46.898;7.660;2022-07-29T12:54:08;22.10;65.20
42841;DHT22;28491;46.898;7.660;2022-07-29T12:56:39;22.00;64.50
42841;DHT22;28491;46.898;7.660;2022-07-29T12:59:31;21.90;64.10
42841;DHT22;28491;46.898;7.660;2022-07-29T13:01:56;22.00;64.50
42841;DHT22;28491;46.898;7.660;2022-07-29T13:04:29;22.10;66.50
42841;DHT22;28491;46.898;7.660;2022-07-29T13:07:03;22.20;66.90
42841;DHT22;28491;46.898;7.660;2022-07-29T13:09:38;22.10;67.50
42841;DHT22;28491;46.898;7.660;2022-07-29T13:12:08;22.00;66.70
42841;DHT22;28491;46.898;7.660;2022-07-29T13:17:11;21.30;64.90
42841;DHT22;28491;46.898;7.660;2022-07-29T13:19:46;20.80;68.60
42841;DHT22;28491;46.898;7.660;2022-07-29T13:22:14;20.20;71.60
42841;DHT22;28491;46.898;7.660;2022-07-29T13:24:56;19.60;71.70
42841;DHT22;28491;46.898;7.660;2022-07-29T13:27:24;19.10;74.40
42841;DHT22;28491;46.898;7.660;2022-07-29T13:29:50;18.60;72.00
42841;DHT22;28491;46.898;7.660;2022-07-29T13:32:18;18.20;74.30
42841;DHT22;28491;46.898;7.660;2022-07-29T13:34:43;18.00;76.50
42841;DHT22;28491;46.898;7.660;2022-07-29T13:37:09;17.70;76.00
42841;DHT22;28491;46.898;7.660;2022-07-29T13:39:35;17.50;78.00
42841;DHT22;28491;46.898;7.660;2022-07-29T13:42:02;17.50;78.80
42841;DHT22;28491;46.898;7.660;2022-07-29T13:44:28;17.40;81.60
42841;DHT22;28491;46.898;7.660;2022-07-29T13:46:53;17.50;83.40
42841;DHT22;28491;46.898;7.660;2022-07-29T13:49:19;17.40;84.00
42841;DHT22;28491;46.898;7.660;2022-07-29T13:51:45;17.50;87.80
42841;DHT22;28491;46.898;7.660;2022-07-29T13:54:10;17.60;88.20
42841;DHT22;28491;46.898;7.660;2022-07-29T13:56:36;17.60;87.30
42841;DHT22;28491;46.898;7.660;2022-07-29T13:59:02;17.70;88.60
42841;DHT22;28491;46.898;7.660;2022-07-29T14:01:27;17.60;88.20
42841;DHT22;28491;46.898;7.660;2022-07-29T14:03:55;17.50;88.40
42841;DHT22;28491;46.898;7.660;2022-07-29T14:06:21;17.50;88.70
42841;DHT22;28491;46.898;7.660;2022-07-29T14:08:46;17.70;91.00
42841;DHT22;28491;46.898;7.660;2022-07-29T14:11:12;17.70;89.40
42841;DHT22;28491;46.898;7.660;2022-07-29T14:13:37;17.70;89.20
42841;DHT22;28491;46.898;7.660;2022-07-29T14:16:03;17.70;84.80
42841;DHT22;28491;46.898;7.660;2022-07-29T14:18:28;17.70;85.20
42841;DHT22;28491;46.898;7.660;2022-07-29T14:20:54;17.70;88.00
42841;DHT22;28491;46.898;7.660;2022-07-29T14:23:20;17.70;89.20
42841;DHT22;28491;46.898;7.660;2022-07-29T14:25:45;17.60;88.80
42841;DHT22;28491;46.898;7.660;2022-07-29T14:28:11;17.50;88.10
42841;DHT22;28491;46.898;7.660;2022-07-29T14:30:37;17.50;89.20
42841;DHT22;28491;46.898;7.660;2022-07-29T14:33:02;17.50;90.50
42841;DHT22;28491;46.898;7.660;2022-07-29T14:35:28;17.50;90.40
42841;DHT22;28491;46.898;7.660;2022-07-29T14:37:54;17.60;90.70
42841;DHT22;28491;46.898;7.660;2022-07-29T14:40:20;17.80;90.70
42841;DHT22;28491;46.898;7.660;2022-07-29T14:42:45;17.80;90.70
42841;DHT22;28491;46.898;7.660;2022-07-29T14:45:11;17.80;88.00
42841;DHT22;28491;46.898;7.660;2022-07-29T14:47:38;18.00;89.20
42841;DHT22;28491;46.898;7.660;2022-07-29T14:50:04;18.00;87.80
42841;DHT22;28491;46.898;7.660;2022-07-29T14:52:30;18.00;84.60
42841;DHT22;28491;46.898;7.660;2022-07-29T14:54:56;18.10;86.40
42841;DHT22;28491;46.898;7.660;2022-07-29T14:57:21;18.00;83.10
42841;DHT22;28491;46.898;7.660;2022-07-29T14:59:47;18.10;85.60
42841;DHT22;28491;46.898;7.660;2022-07-29T15:02:13;18.10;84.30
42841;DHT22;28491;46.898;7.660;2022-07-29T15:04:38;18.20;85.30
42841;DHT22;28491;46.898;7.660;2022-07-29T15:07:04;18.30;86.20
42841;DHT22;28491;46.898;7.660;2022-07-29T15:09:29;18.30;87.00
42841;DHT22;28491;46.898;7.660;2022-07-29T15:11:55;18.30;85.00
42841;DHT22;28491;46.898;7.660;2022-07-29T15:14:21;18.30;84.20
42841;DHT22;28491;46.898;7.660;2022-07-29T15:16:46;18.30;84.30
42841;DHT22;28491;46.898;7.660;2022-07-29T15:19:12;18.30;84.20
42841;DHT22;28491;46.898;7.660;2022-07-29T15:21:37;18.20;84.80
42841;DHT22;28491;46.898;7.660;2022-07-29T15:24:03;18.30;86.30
42841;DHT22;28491;46.898;7.660;2022-07-29T15:26:29;18.30;85.20
42841;DHT22;28491;46.898;7.660;2022-07-29T15:28:54;18.30;85.90
42841;DHT22;28491;46.898;7.660;2022-07-29T15:31:23;18.30;85.30
42841;DHT22;28491;46.898;7.660;2022-07-29T15:33:48;18.20;85.40
42841;DHT22;28491;46.898;7.660;2022-07-29T15:36:14;18.30;89.30
42841;DHT22;28491;46.898;7.660;2022-07-29T15:38:40;18.30;89.90
42841;DHT22;28491;46.898;7.660;2022-07-29T15:41:06;18.40;89.60
42841;DHT22;28491;46.898;7.660;2022-07-29T15:43:32;18.40;87.70
42841;DHT22;28491;46.898;7.660;2022-07-29T15:45:59;18.40;88.40
42841;DHT22;28491;46.898;7.660;2022-07-29T15:48:44;18.30;84.90
42841;DHT22;28491;46.898;7.660;2022-07-29T15:51:09;18.50;85.30
42841;DHT22;28491;46.898;7.660;2022-07-29T15:53:35;18.50;86.00
42841;DHT22;28491;46.898;7.660;2022-07-29T15:56:00;18.60;84.00
42841;DHT22;28491;46.898;7.660;2022-07-29T15:58:26;18.70;84.30
42841;DHT22;28491;46.898;7.660;2022-07-29T16:00:51;18.80;80.10
42841;DHT22;28491;46.898;7.660;2022-07-29T16:03:17;18.70;81.70
42841;DHT22;28491;46.898;7.660;2022-07-29T16:05:44;18.80;83.30
42841;DHT22;28491;46.898;7.660;2022-07-29T16:08:09;18.70;79.70
42841;DHT22;28491;46.898;7.660;2022-07-29T16:10:35;18.70;80.50
42841;DHT22;28491;46.898;7.660;2022-07-29T16:13:00;18.70;77.70
42841;DHT22;28491;46.898;7.660;2022-07-29T16:15:26;18.80;79.10
42841;DHT22;28491;46.898;7.660;2022-07-29T16:17:51;18.70;78.20
42841;DHT22;28491;46.898;7.660;2022-07-29T16:20:17;18.80;79.00